sensor_id;sensor_type;location;lat;lon;timestamp;pressure;altitude;pressure_sealevel;temperature;humidity
47280;BME280;34064;44.942;0.008;2022-07-18T00:01:47;98526.16;;;28.23;35.80
47280;BME280;34064;44.942;0.008;2022-07-18T00:04:13;98527.72;;;28.19;35.70
47280;BME280;34064;44.942;0.008;2022-07-18T00:06:40;98522.38;;;28.12;35.92
47280;BME280;34064;44.942;0.008;2022-07-18T00:09:06;98520.13;;;28.09;35.99
47280;BME280;34064;44.942;0.008;2022-07-18T00:11:33;98520.97;;;28.10;36.01
47280;BME280;34064;44.942;0.008;2022-07-18T00:13:59;98520.13;;;28.09;35.95
47280;BME280;34064;44.942;0.008;2022-07-18T00:16:25;98527.59;;;28.02;36.09
47280;BME280;34064;44.942;0.008;2022-07-18T00:18:52;98525.19;;;28.06;36.02
47280;BME280;34064;44.942;0.008;2022-07-18T00:21:21;98515.25;;;27.99;36.06
47280;BME280;34064;44.942;0.008;2022-07-18T00:23:47;98522.84;;;27.97;36.15
47280;BME280;34064;44.942;0.008;2022-07-18T00:26:13;98514.06;;;27.95;36.13
47280;BME280;34064;44.942;0.008;2022-07-18T00:28:40;98515.38;;;27.93;36.18
47280;BME280;34064;44.942;0.008;2022-07-18T00:31:06;98518.81;;;27.88;36.16
47280;BME280;34064;44.942;0.008;2022-07-18T00:33:32;98517.75;;;27.89;36.23
47280;BME280;34064;44.942;0.008;2022-07-18T00:35:59;98523.66;;;27.86;36.57
47280;BME280;34064;44.942;0.008;2022-07-18T00:38:25;98517.59;;;27.84;36.40
47280;BME280;34064;44.942;0.008;2022-07-18T00:40:52;98523.66;;;27.86;36.36
47280;BME280;34064;44.942;0.008;2022-07-18T00:43:18;98519.28;;;27.85;36.13
47280;BME280;34064;44.942;0.008;2022-07-18T00:45:48;98517.59;;;27.84;36.30
47280;BME280;34064;44.942;0.008;2022-07-18T00:48:16;98520.00;;;27.80;36.18
47280;BME280;34064;44.942;0.008;2022-07-18T00:50:43;98522.13;;;27.78;36.50
47280;BME280;34064;44.942;0.008;2022-07-18T00:53:10;98524.50;;;27.75;36.42
47280;BME280;34064;44.942;0.008;2022-07-18T00:55:43;98522.81;;;27.74;36.72
47280;BME280;34064;44.942;0.008;2022-07-18T00:58:10;98518.78;;;27.64;36.70
47280;BME280;34064;44.942;0.008;2022-07-18T01:00:38;98520.94;;;27.62;36.51
47280;BME280;34064;44.942;0.008;2022-07-18T01:03:23;98519.75;;;27.58;36.98
47280;BME280;34064;44.942;0.008;2022-07-18T01:05:50;98511.19;;;27.54;36.90
47280;BME280;34064;44.942;0.008;2022-07-18T01:08:16;98510.25;;;27.49;37.20
47280;BME280;34064;44.942;0.008;2022-07-18T01:10:43;98511.06;;;27.49;37.04
47280;BME280;34064;44.942;0.008;2022-07-18T01:13:09;98513.22;;;27.47;37.27
47280;BME280;34064;44.942;0.008;2022-07-18T01:15:36;98512.38;;;27.47;37.10
47280;BME280;34064;44.942;0.008;2022-07-18T01:18:03;98501.94;;;27.44;37.13
47280;BME280;34064;44.942;0.008;2022-07-18T01:20:30;98507.22;;;27.38;37.52
47280;BME280;34064;44.942;0.008;2022-07-18T01:22:58;98517.16;;;27.33;37.41
47280;BME280;34064;44.942;0.008;2022-07-18T01:25:26;98518.38;;;27.25;37.84
47280;BME280;34064;44.942;0.008;2022-07-18T01:27:53;98515.50;;;27.20;37.63
47280;BME280;34064;44.942;0.008;2022-07-18T01:30:21;98518.66;;;27.17;37.82
47280;BME280;34064;44.942;0.008;2022-07-18T01:32:58;98517.59;;;27.18;37.72
47280;BME280;34064;44.942;0.008;2022-07-18T01:35:25;98522.94;;;27.13;37.63
47280;BME280;34064;44.942;0.008;2022-07-18T01:37:55;98515.81;;;27.12;37.89
47280;BME280;34064;44.942;0.008;2022-07-18T01:40:22;98515.66;;;27.06;38.04
47280;BME280;34064;44.942;0.008;2022-07-18T01:42:49;98512.22;;;26.99;38.16
47280;BME280;34064;44.942;0.008;2022-07-18T01:45:17;98516.94;;;26.92;38.28
47280;BME280;34064;44.942;0.008;2022-07-18T01:47:43;98515.72;;;26.88;38.69
47280;BME280;34064;44.942;0.008;2022-07-18T01:50:11;98519.38;;;26.82;38.63
47280;BME280;34064;44.942;0.008;2022-07-18T01:52:38;98518.19;;;26.77;38.74
47280;BME280;34064;44.942;0.008;2022-07-18T01:55:08;98516.72;;;26.75;38.78
47280;BME280;34064;44.942;0.008;2022-07-18T01:57:35;98520.97;;;26.71;38.92
47280;BME280;34064;44.942;0.008;2022-07-18T02:00:03;98523.53;;;26.66;39.16
47280;BME280;34064;44.942;0.008;2022-07-18T02:02:29;98524.03;;;26.62;39.12
47280;BME280;34064;44.942;0.008;2022-07-18T02:04:56;98518.22;;;26.59;39.06
47280;BME280;34064;44.942;0.008;2022-07-18T02:09:59;98530.47;;;26.50;39.58
47280;BME280;34064;44.942;0.008;2022-07-18T02:12:25;98525.72;;;26.45;39.52
47280;BME280;34064;44.942;0.008;2022-07-18T02:14:52;98527.56;;;26.44;39.40
47280;BME280;34064;44.942;0.008;2022-07-18T02:17:19;98525.16;;;26.36;39.89
47280;BME280;34064;44.942;0.008;2022-07-18T02:19:46;98527.03;;;26.36;39.70
47280;BME280;34064;44.942;0.008;2022-07-18T02:22:12;98523.13;;;26.31;39.60
47280;BME280;34064;44.942;0.008;2022-07-18T02:24:39;98520.03;;;26.28;39.67
47280;BME280;34064;44.942;0.008;2022-07-18T02:27:05;98525.41;;;26.16;40.15
47280;BME280;34064;44.942;0.008;2022-07-18T02:29:32;98525.59;;;26.14;40.44
47280;BME280;34064;44.942;0.008;2022-07-18T02:31:58;98526.66;;;26.13;39.95
47280;BME280;34064;44.942;0.008;2022-07-18T02:34:24;98529.84;;;26.10;40.26
47280;BME280;34064;44.942;0.008;2022-07-18T02:36:51;98523.56;;;26.10;40.03
47280;BME280;34064;44.942;0.008;2022-07-18T02:39:18;98529.22;;;26.08;40.24
47280;BME280;34064;44.942;0.008;2022-07-18T02:41:45;98531.75;;;26.03;40.56
47280;BME280;34064;44.942;0.008;2022-07-18T02:44:12;98540.22;;;25.95;40.88
47280;BME280;34064;44.942;0.008;2022-07-18T02:46:38;98534.38;;;25.91;40.91
47280;BME280;34064;44.942;0.008;2022-07-18T02:49:05;98541.78;;;25.84;40.91
47280;BME280;34064;44.942;0.008;2022-07-18T02:51:31;98544.13;;;25.80;41.32
47280;BME280;34064;44.942;0.008;2022-07-18T02:53:58;98541.69;;;25.72;41.46
47280;BME280;34064;44.942;0.008;2022-07-18T02:56:24;98535.03;;;25.68;41.36
47280;BME280;34064;44.942;0.008;2022-07-18T02:58:50;98533.81;;;25.64;41.22
47280;BME280;34064;44.942;0.008;2022-07-18T03:01:17;98526.72;;;25.63;41.52
47280;BME280;34064;44.942;0.008;2022-07-18T03:03:43;98535.53;;;25.58;41.44
47280;BME280;34064;44.942;0.008;2022-07-18T03:06:10;98528.03;;;25.53;41.40
47280;BME280;34064;44.942;0.008;2022-07-18T03:08:36;98526.19;;;25.47;41.71
47280;BME280;34064;44.942;0.008;2022-07-18T03:11:03;98532.75;;;25.40;41.92
47280;BME280;34064;44.942;0.008;2022-07-18T03:13:29;98525.03;;;25.30;42.33
47280;BME280;34064;44.942;0.008;2022-07-18T03:15:55;98536.38;;;25.27;42.29
47280;BME280;34064;44.942;0.008;2022-07-18T03:18:22;98536.19;;;25.21;42.28
47280;BME280;34064;44.942;0.008;2022-07-18T03:20:48;98532.03;;;25.19;42.48
47280;BME280;34064;44.942;0.008;2022-07-18T03:23:15;98533.31;;;25.16;42.22
47280;BME280;34064;44.942;0.008;2022-07-18T03:25:41;98535.66;;;25.06;42.75
47280;BME280;34064;44.942;0.008;2022-07-18T03:28:07;98532.94;;;25.06;42.60
47280;BME280;34064;44.942;0.008;2022-07-18T03:30:34;98532.94;;;25.06;42.59
47280;BME280;34064;44.942;0.008;2022-07-18T03:33:00;98531.09;;;25.00;42.83
47280;BME280;34064;44.942;0.008;2022-07-18T03:35:27;98534.91;;;24.92;42.91
47280;BME280;34064;44.942;0.008;2022-07-18T03:37:53;98528.63;;;24.91;42.94
47280;BME280;34064;44.942;0.008;2022-07-18T03:40:19;98533.44;;;24.89;42.84
47280;BME280;34064;44.942;0.008;2022-07-18T03:42:46;98534.31;;;24.83;43.11
47280;BME280;34064;44.942;0.008;2022-07-18T03:45:12;98538.09;;;24.82;43.26
47280;BME280;34064;44.942;0.008;2022-07-18T03:47:39;98536.25;;;24.76;43.51
47280;BME280;34064;44.942;0.008;2022-07-18T03:50:05;98531.03;;;24.74;43.23
47280;BME280;34064;44.942;0.008;2022-07-18T03:52:32;98536.88;;;24.65;43.73
47280;BME280;34064;44.942;0.008;2022-07-18T03:54:58;98536.66;;;24.66;43.26
47280;BME280;34064;44.942;0.008;2022-07-18T03:57:27;98546.06;;;24.64;43.49
47280;BME280;34064;44.942;0.008;2022-07-18T03:59:54;98547.34;;;24.61;43.67
47280;BME280;34064;44.942;0.008;2022-07-18T04:02:20;98543.19;;;24.58;43.38
47280;BME280;34064;44.942;0.008;2022-07-18T04:04:46;98537.94;;;24.57;43.60
47280;BME280;34064;44.942;0.008;2022-07-18T04:07:13;98542.34;;;24.58;43.41
47280;BME280;34064;44.942;0.008;2022-07-18T04:09:39;98541.94;;;24.54;43.67
47280;BME280;34064;44.942;0.008;2022-07-18T04:12:05;98540.31;;;24.47;43.90
47280;BME280;34064;44.942;0.008;2022-07-18T04:14:32;98548.03;;;24.43;44.09
47280;BME280;34064;44.942;0.008;2022-07-18T04:16:58;98543.47;;;24.37;44.33
47280;BME280;34064;44.942;0.008;2022-07-18T04:19:24;98554.13;;;24.32;44.28
47280;BME280;34064;44.942;0.008;2022-07-18T04:21:51;98552.88;;;24.27;44.24
47280;BME280;34064;44.942;0.008;2022-07-18T04:24:17;98563.97;;;24.19;44.35
47280;BME280;34064;44.942;0.008;2022-07-18T04:26:44;98567.94;;;24.10;44.68
47280;BME280;34064;44.942;0.008;2022-07-18T04:29:10;98565.25;;;24.10;44.52
47280;BME280;34064;44.942;0.008;2022-07-18T04:31:37;98575.88;;;24.05;44.67
47280;BME280;34064;44.942;0.008;2022-07-18T04:34:03;98580.06;;;24.01;44.70
47280;BME280;34064;44.942;0.008;2022-07-18T04:36:29;98572.56;;;23.96;44.83
47280;BME280;34064;44.942;0.008;2022-07-18T04:38:56;98579.63;;;23.90;45.13
47280;BME280;34064;44.942;0.008;2022-07-18T04:41:22;98582.34;;;23.83;45.17
47280;BME280;34064;44.942;0.008;2022-07-18T04:43:51;98590.47;;;23.77;45.51
47280;BME280;34064;44.942;0.008;2022-07-18T04:46:18;98588.78;;;23.76;45.33
47280;BME280;34064;44.942;0.008;2022-07-18T04:48:45;98581.50;;;23.76;45.48
47280;BME280;34064;44.942;0.008;2022-07-18T04:51:11;98587.34;;;23.73;45.48
47280;BME280;34064;44.942;0.008;2022-07-18T04:53:37;98576.31;;;23.75;45.59
47280;BME280;34064;44.942;0.008;2022-07-18T04:56:05;98585.47;;;23.74;45.73
47280;BME280;34064;44.942;0.008;2022-07-18T04:58:31;98582.97;;;23.79;45.40
47280;BME280;34064;44.942;0.008;2022-07-18T05:00:58;98582.56;;;23.82;45.40
47280;BME280;34064;44.942;0.008;2022-07-18T05:03:24;98580.88;;;23.81;45.75
